createdAt,value
2023-04-13T00:02:24.495Z,97834.50
2023-04-13T00:04:51.694Z,97836.97
2023-04-13T00:07:19.064Z,97825.09
2023-04-13T00:09:47.343Z,97850.31
2023-04-13T00:12:16.203Z,97844.34
2023-04-13T00:14:44.010Z,97816.53
2023-04-13T00:17:11.093Z,97849.34
2023-04-13T00:19:37.918Z,97824.84
2023-04-13T00:22:05.135Z,97837.38
2023-04-13T00:24:33.611Z,97826.34
2023-04-13T00:27:01.187Z,97836.44
2023-04-13T00:29:27.957Z,97833.13
2023-04-13T00:31:54.709Z,97824.69
2023-04-13T00:34:21.541Z,97828.09
2023-04-13T00:36:49.156Z,97828.06
2023-04-13T00:39:16.039Z,97817.97
2023-04-13T00:41:42.717Z,97818.06
2023-04-13T00:44:09.458Z,97816.41
2023-04-13T00:46:36.768Z,97819.81
2023-04-13T00:49:03.942Z,97805.50
2023-04-13T00:51:30.821Z,97820.72
2023-04-13T00:53:59.453Z,97819.91
2023-04-13T00:56:27.242Z,97826.69
2023-04-13T00:58:56.379Z,97821.66
2023-04-13T01:01:23.351Z,97833.53
2023-04-13T01:03:53.414Z,97813.34
2023-04-13T01:06:31.865Z,97818.31
2023-04-13T01:09:10.365Z,97814.91
2023-04-13T01:11:46.787Z,97807.31
2023-04-13T01:14:24.320Z,97808.13
2023-04-13T01:16:57.297Z,97818.25
2023-04-13T01:20:01.290Z,97809.81
2023-04-13T01:22:30.856Z,97807.31
2023-04-13T01:25:31.567Z,97806.47
2023-04-13T01:28:12.307Z,97812.44
2023-04-13T01:30:40.533Z,97810.66
2023-04-13T01:33:09.659Z,97813.94
2023-04-13T01:35:38.143Z,97804.63
2023-04-13T01:38:06.846Z,97814.69
2023-04-13T01:40:40.452Z,97820.50
2023-04-13T01:43:08.513Z,97810.38
2023-04-13T01:45:45.909Z,97809.44
2023-04-13T01:48:24.981Z,97811.06
2023-04-13T01:51:07.397Z,97812.75
2023-04-13T01:53:42.394Z,97821.19
2023-04-13T01:56:09.605Z,97822.84
2023-04-13T01:58:37.768Z,97809.28
2023-04-13T02:01:07.728Z,97818.50
2023-04-13T02:06:03.217Z,97808.44
2023-04-13T02:08:33.634Z,97808.44
2023-04-13T02:11:02.031Z,97824.53
2023-04-13T02:13:29.569Z,97816.13
2023-04-13T02:15:57.610Z,97824.63
2023-04-13T02:18:24.724Z,97831.41
2023-04-13T02:21:11.170Z,97842.41
2023-04-13T02:23:40.541Z,97844.19
2023-04-13T02:26:16.245Z,97850.13
2023-04-13T02:28:43.283Z,97830.78
2023-04-13T02:31:10.092Z,97846.00
2023-04-13T02:33:37.640Z,97835.03
2023-04-13T02:36:05.260Z,97839.34
2023-04-13T02:38:32.268Z,97851.97
2023-04-13T02:41:01.160Z,97852.84
2023-04-13T02:43:28.901Z,97867.16
2023-04-13T02:45:56.647Z,97858.72
2023-04-13T02:48:23.599Z,97872.22
2023-04-13T02:50:51.074Z,97866.31
2023-04-13T02:53:17.934Z,97858.75
2023-04-13T02:55:44.657Z,97863.00
2023-04-13T02:58:12.307Z,97861.41
2023-04-13T03:00:39.730Z,97868.13
2023-04-13T03:03:06.854Z,97879.09
2023-04-13T03:05:33.953Z,97870.63
2023-04-13T03:08:00.897Z,97880.72
2023-04-13T03:10:27.705Z,97868.88
2023-04-13T03:12:54.775Z,97881.63
2023-04-13T03:15:21.571Z,97886.69
2023-04-13T03:17:48.438Z,97878.19
2023-04-13T03:20:16.807Z,97883.19
2023-04-13T03:22:45.030Z,97876.53
2023-04-13T03:25:12.500Z,97874.00
2023-04-13T03:27:39.513Z,97877.28
2023-04-13T03:30:07.566Z,97869.69
2023-04-13T03:32:34.494Z,97889.88
2023-04-13T03:35:01.271Z,97878.03
2023-04-13T03:37:30.238Z,97883.16
2023-04-13T03:39:58.481Z,97904.19
2023-04-13T03:42:25.231Z,97889.06
2023-04-13T03:44:52.130Z,97899.13
2023-04-13T03:47:19.231Z,97892.31
2023-04-13T03:49:45.995Z,97910.00
2023-04-13T03:52:12.701Z,97899.06
2023-04-13T03:54:40.209Z,97904.94
2023-04-13T03:57:07.311Z,97916.75
2023-04-13T03:59:34.500Z,97916.78
2023-04-13T04:02:02.787Z,97929.50
2023-04-13T04:04:30.043Z,97925.34
2023-04-13T04:06:58.179Z,97938.94
2023-04-13T04:09:25.771Z,97944.09
2023-04-13T04:14:48.137Z,97942.59
2023-04-13T04:17:15.453Z,97956.19
2023-04-13T04:19:42.633Z,97968.00
2023-04-13T04:22:09.898Z,97969.78
2023-04-13T04:24:36.610Z,97968.94
2023-04-13T04:27:05.767Z,97975.69
2023-04-13T04:29:35.421Z,97979.06
2023-04-13T04:32:04.186Z,97990.09
2023-04-13T04:34:31.702Z,97996.81
2023-04-13T04:37:03.116Z,98001.88
2023-04-13T04:39:32.979Z,98008.69
2023-04-13T04:42:04.171Z,98007.06
2023-04-13T04:44:31.373Z,98015.41
2023-04-13T04:47:02.788Z,98012.88
2023-04-13T04:49:30.140Z,98022.16
2023-04-13T04:51:58.078Z,98031.44
2023-04-13T04:54:25.566Z,98027.19
2023-04-13T04:56:52.356Z,98035.63
2023-04-13T04:59:22.321Z,98039.03
2023-04-13T05:01:49.842Z,98050.00
2023-04-13T05:04:17.079Z,98058.44
2023-04-13T05:06:44.473Z,98063.53
2023-04-13T05:09:11.653Z,98073.69
2023-04-13T05:11:39.016Z,98075.38
2023-04-13T05:14:05.935Z,98078.78
2023-04-13T05:16:34.434Z,98076.31
2023-04-13T05:19:01.926Z,98084.63
2023-04-13T05:21:28.906Z,98085.47
2023-04-13T05:23:56.598Z,98079.56
2023-04-13T05:26:25.266Z,98088.00
2023-04-13T05:28:52.343Z,98102.28
2023-04-13T05:31:19.086Z,98112.38
2023-04-13T05:33:46.519Z,98105.63
2023-04-13T05:36:13.491Z,98118.16
2023-04-13T05:38:40.204Z,98122.38
2023-04-13T05:41:07.354Z,98113.03
2023-04-13T05:43:35.040Z,98123.00
2023-04-13T05:46:02.263Z,98125.50
2023-04-13T05:48:30.478Z,98135.53
2023-04-13T05:50:59.147Z,98135.47
2023-04-13T05:53:26.082Z,98144.66
2023-04-13T05:55:52.811Z,98138.69
2023-04-13T05:58:20.171Z,98144.56
2023-04-13T06:00:46.885Z,98152.06
2023-04-13T06:03:16.102Z,98161.28
2023-04-13T06:05:43.468Z,98162.91
2023-04-13T06:08:10.525Z,98170.34
2023-04-13T06:10:37.464Z,98174.47
2023-04-13T06:13:04.240Z,98166.78
2023-04-13T06:15:31.998Z,98179.25
2023-04-13T06:17:58.790Z,98172.41
2023-04-13T06:20:25.518Z,98185.75
2023-04-13T06:22:52.269Z,98193.13
2023-04-13T06:25:19.501Z,98190.38
2023-04-13T06:27:48.828Z,98190.94
2023-04-13T06:30:15.884Z,98194.09
2023-04-13T06:32:42.845Z,98203.84
2023-04-13T06:35:10.825Z,98186.56
2023-04-13T06:37:38.959Z,98190.31
2023-04-13T06:40:09.886Z,98191.47
2023-04-13T06:42:36.785Z,98194.19
2023-04-13T06:45:03.824Z,98194.22
2023-04-13T06:47:30.681Z,98192.38
2023-04-13T06:49:57.485Z,98199.00
2023-04-13T06:52:24.268Z,98204.91
2023-04-13T06:54:51.569Z,98207.44
2023-04-13T06:57:18.779Z,98216.94
2023-04-13T06:59:45.502Z,98212.97
2023-04-13T07:02:12.254Z,98212.81
2023-04-13T07:04:39.498Z,98217.00
2023-04-13T07:07:06.354Z,98219.56
2023-04-13T07:09:33.061Z,98222.25
2023-04-13T07:12:07.234Z,98218.22
2023-04-13T07:14:39.554Z,98231.16
2023-04-13T07:17:06.731Z,98230.59
2023-04-13T07:19:35.657Z,98235.94
2023-04-13T07:22:04.181Z,98231.13
2023-04-13T07:24:34.073Z,98239.78
2023-04-13T07:27:01.251Z,98248.34
2023-04-13T07:29:28.160Z,98249.28
2023-04-13T07:32:01.301Z,98247.50
2023-04-13T07:34:29.040Z,98256.72
2023-04-13T07:36:55.800Z,98266.81
2023-04-13T07:39:22.849Z,98267.56
2023-04-13T07:41:49.758Z,98264.91
2023-04-13T07:44:16.528Z,98275.56
2023-04-13T07:46:43.507Z,98276.34
2023-04-13T07:49:10.281Z,98285.47
2023-04-13T07:51:36.993Z,98275.31
2023-04-13T07:54:03.830Z,98284.53
2023-04-13T07:56:31.170Z,98290.41
2023-04-13T07:58:58.150Z,98295.59
2023-04-13T08:01:25.653Z,98305.00
2023-04-13T08:03:52.439Z,98301.59
2023-04-13T08:06:23.208Z,98303.28
2023-04-13T08:08:50.068Z,98304.13
2023-04-13T08:11:16.852Z,98310.03
2023-04-13T08:13:43.659Z,98314.19
2023-04-13T08:16:11.207Z,98316.72
2023-04-13T08:18:38.376Z,98323.47
2023-04-13T08:21:11.248Z,98317.47
2023-04-13T08:23:42.879Z,98321.63
2023-04-13T08:26:20.966Z,98318.22
2023-04-13T08:28:49.660Z,98320.69
2023-04-13T08:31:16.630Z,98318.91
2023-04-13T08:33:43.907Z,98330.47
2023-04-13T08:36:10.732Z,98329.00
2023-04-13T08:38:37.495Z,98333.97
2023-04-13T08:41:04.494Z,98334.44
2023-04-13T08:43:35.497Z,98337.19
2023-04-13T08:46:05.743Z,98338.50
2023-04-13T08:48:53.484Z,98349.16
2023-04-13T08:51:22.783Z,98350.13
2023-04-13T08:53:56.158Z,98351.50
2023-04-13T08:56:30.920Z,98349.84
2023-04-13T08:59:07.480Z,98359.78
2023-04-13T09:01:40.410Z,98356.94
2023-04-13T09:04:10.703Z,98365.88
2023-04-13T09:06:41.465Z,98373.25
2023-04-13T09:09:14.269Z,98371.34
2023-04-13T09:11:42.975Z,98374.34
2023-04-13T09:14:10.424Z,98378.03
2023-04-13T09:16:42.305Z,98384.22
2023-04-13T09:19:10.195Z,98385.41
2023-04-13T09:21:42.340Z,98399.34
2023-04-13T09:24:09.661Z,98393.69
2023-04-13T09:26:45.506Z,98396.38
2023-04-13T09:29:21.839Z,98397.84
2023-04-13T09:31:48.824Z,98389.00
2023-04-13T09:34:27.960Z,98402.72
2023-04-13T09:36:56.687Z,98396.84
2023-04-13T09:39:29.000Z,98404.69
2023-04-13T09:41:57.954Z,98413.72
2023-04-13T09:44:25.618Z,98403.94
2023-04-13T09:47:06.889Z,98406.16
2023-04-13T09:49:41.905Z,98412.88
2023-04-13T09:52:23.441Z,98410.31
2023-04-13T09:54:55.712Z,98424.75
2023-04-13T09:57:31.685Z,98420.91
2023-04-13T10:00:01.784Z,98422.50
2023-04-13T10:02:29.195Z,98421.75
2023-04-13T10:04:56.531Z,98417.53
2023-04-13T10:07:26.873Z,98413.56
2023-04-13T10:09:54.397Z,98420.47
2023-04-13T10:12:24.652Z,98427.38
2023-04-13T10:14:58.955Z,98415.22
2023-04-13T10:17:39.615Z,98422.34
2023-04-13T10:20:10.475Z,98419.59
2023-04-13T10:22:40.776Z,98425.63
2023-04-13T10:25:18.679Z,98434.75
2023-04-13T10:28:01.068Z,98444.03
2023-04-13T10:30:28.347Z,98440.78
2023-04-13T10:33:09.747Z,98453.84
2023-04-13T10:35:37.467Z,98458.59
2023-04-13T10:38:04.870Z,98452.88
2023-04-13T10:40:46.098Z,98464.19
2023-04-13T10:43:13.105Z,98459.84
2023-04-13T10:45:39.885Z,98471.44
2023-04-13T10:48:07.537Z,98470.97
2023-04-13T10:50:34.614Z,98475.69
2023-04-13T10:53:05.047Z,98468.25
2023-04-13T10:55:34.234Z,98473.19
2023-04-13T10:58:13.066Z,98479.97
2023-04-13T11:00:46.418Z,98479.25
2023-04-13T11:03:16.961Z,98481.56
2023-04-13T11:05:47.097Z,98472.75
2023-04-13T11:08:19.322Z,98482.44
2023-04-13T11:10:54.883Z,98487.06
2023-04-13T11:13:25.228Z,98489.59
2023-04-13T11:16:00.255Z,98489.63
2023-04-13T11:18:27.835Z,98492.13
2023-04-13T11:20:55.238Z,98501.19
2023-04-13T11:23:24.359Z,98498.56
2023-04-13T11:26:01.277Z,98498.75
2023-04-13T11:28:47.009Z,98508.25
2023-04-13T11:31:13.965Z,98513.63
2023-04-13T11:33:41.049Z,98511.63
2023-04-13T11:36:09.581Z,98505.56
2023-04-13T11:38:41.542Z,98512.94
2023-04-13T11:41:16.562Z,98518.00
2023-04-13T11:43:48.415Z,98512.78
2023-04-13T11:46:23.123Z,98512.72
2023-04-13T11:48:50.420Z,98516.56
2023-04-13T11:51:17.309Z,98508.19
2023-04-13T11:53:45.413Z,98498.34
2023-04-13T11:56:14.385Z,98500.09
2023-04-13T11:58:42.652Z,98500.59
2023-04-13T12:01:14.329Z,98501.50
2023-04-13T12:06:17.422Z,98489.72
2023-04-13T12:08:46.349Z,98500.38
2023-04-13T12:11:40.506Z,98502.44
2023-04-13T12:14:11.532Z,98500.91
2023-04-13T12:19:13.095Z,98495.22
2023-04-13T12:21:53.444Z,98502.34
2023-04-13T12:24:20.461Z,98512.56
2023-04-13T12:29:16.938Z,98508.53
2023-04-13T12:31:45.433Z,98518.13
2023-04-13T12:34:12.233Z,98515.81
2023-04-13T12:36:38.900Z,98521.88
2023-04-13T12:39:06.729Z,98524.66
2023-04-13T12:41:33.724Z,98521.22
2023-04-13T12:44:01.286Z,98529.94
2023-04-13T12:46:28.132Z,98534.00
2023-04-13T12:48:54.925Z,98539.81
2023-04-13T12:51:21.771Z,98535.88
2023-04-13T12:53:48.497Z,98531.03
2023-04-13T12:56:15.912Z,98533.38
2023-04-13T12:58:42.878Z,98535.78
2023-04-13T13:01:10.126Z,98529.31
2023-04-13T13:03:37.256Z,98531.25
2023-04-13T13:06:08.080Z,98535.50
2023-04-13T13:08:37.557Z,98534.66
2023-04-13T13:11:08.174Z,98532.91
2023-04-13T13:13:34.899Z,98543.84
2023-04-13T13:16:01.673Z,98544.47
2023-04-13T13:18:38.409Z,98548.47
2023-04-13T13:21:13.723Z,98554.47
2023-04-13T13:23:40.496Z,98546.94
2023-04-13T13:26:23.308Z,98550.78
2023-04-13T13:28:51.956Z,98554.72
2023-04-13T13:31:19.314Z,98561.41
2023-04-13T13:33:46.338Z,98555.00
2023-04-13T13:36:14.066Z,98560.69
2023-04-13T13:38:44.606Z,98560.47
2023-04-13T13:41:11.399Z,98556.75
2023-04-13T13:43:38.901Z,98552.63
2023-04-13T13:46:06.563Z,98555.47
2023-04-13T13:48:33.359Z,98547.00
2023-04-13T13:51:00.300Z,98550.63
2023-04-13T13:53:27.178Z,98552.56
2023-04-13T13:55:54.241Z,98557.31
2023-04-13T13:58:20.981Z,98555.44
2023-04-13T14:00:47.756Z,98554.25
2023-04-13T14:03:16.454Z,98553.84
2023-04-13T14:05:43.406Z,98555.97
2023-04-13T14:08:10.540Z,98566.41
2023-04-13T14:10:37.427Z,98568.34
2023-04-13T14:13:04.225Z,98562.47
2023-04-13T14:15:31.353Z,98561.72
2023-04-13T14:18:09.877Z,98554.19
2023-04-13T14:20:39.578Z,98566.53
2023-04-13T14:23:07.394Z,98563.41
2023-04-13T14:25:34.225Z,98568.00
2023-04-13T14:28:01.692Z,98571.72
2023-04-13T14:30:28.649Z,98578.09
2023-04-13T14:32:56.133Z,98583.41
2023-04-13T14:35:23.106Z,98575.88
2023-04-13T14:37:49.852Z,98578.63
2023-04-13T14:40:20.775Z,98582.72
2023-04-13T14:42:49.884Z,98587.50
2023-04-13T14:45:16.758Z,98579.31
2023-04-13T14:47:43.533Z,98572.69
2023-04-13T14:50:11.567Z,98582.53
2023-04-13T14:52:38.420Z,98583.66
2023-04-13T14:55:05.707Z,98578.75
2023-04-13T14:57:33.098Z,98590.06
2023-04-13T14:59:59.880Z,98582.34
2023-04-13T15:02:28.523Z,98594.22
2023-04-13T15:04:55.931Z,98589.16
2023-04-13T15:07:29.788Z,98591.84
2023-04-13T15:09:58.032Z,98596.22
2023-04-13T15:12:24.986Z,98587.75
2023-04-13T15:14:51.721Z,98596.16
2023-04-13T15:17:18.426Z,98597.72
2023-04-13T15:19:45.223Z,98598.53
2023-04-13T15:22:11.913Z,98601.03
2023-04-13T15:24:38.666Z,98591.72
2023-04-13T15:27:05.581Z,98597.88
2023-04-13T15:29:32.331Z,98598.88
2023-04-13T15:32:00.127Z,98594.72
2023-04-13T15:34:27.911Z,98594.94
2023-04-13T15:36:56.868Z,98605.22
2023-04-13T15:39:23.569Z,98604.47
2023-04-13T15:41:52.467Z,98601.19
2023-04-13T15:44:19.191Z,98595.94
2023-04-13T15:46:47.849Z,98594.19
2023-04-13T15:49:14.708Z,98596.75
2023-04-13T15:51:41.451Z,98598.41
2023-04-13T15:54:08.184Z,98610.47
2023-04-13T15:56:35.407Z,98606.47
2023-04-13T15:59:02.448Z,98613.75
2023-04-13T16:01:48.477Z,98613.47
2023-04-13T16:04:16.237Z,98608.84
2023-04-13T16:06:43.109Z,98612.88
2023-04-13T16:09:09.962Z,98618.53
2023-04-13T16:11:40.290Z,98612.34
2023-04-13T16:14:07.556Z,98617.22
2023-04-13T16:16:44.055Z,98612.59
2023-04-13T16:19:12.204Z,98619.44
2023-04-13T16:21:43.247Z,98617.53
2023-04-13T16:24:10.576Z,98623.16
2023-04-13T16:26:38.142Z,98622.66
2023-04-13T16:29:05.473Z,98626.63
2023-04-13T16:31:32.331Z,98625.41
2023-04-13T16:33:59.165Z,98630.25
2023-04-13T16:36:27.218Z,98623.84
2023-04-13T16:38:54.250Z,98639.63
2023-04-13T16:41:21.008Z,98643.44
2023-04-13T16:43:47.731Z,98647.97
2023-04-13T16:46:14.776Z,98647.47
2023-04-13T16:48:41.508Z,98660.69
2023-04-13T16:51:08.241Z,98663.63
2023-04-13T16:53:34.951Z,98671.59
2023-04-13T16:56:01.768Z,98665.91
2023-04-13T16:58:28.555Z,98672.03
2023-04-13T17:00:55.356Z,98670.50
2023-04-13T17:03:22.319Z,98668.88
2023-04-13T17:05:49.298Z,98683.56
2023-04-13T17:08:17.049Z,98684.69
2023-04-13T17:10:43.938Z,98688.44
2023-04-13T17:13:10.627Z,98696.50
2023-04-13T17:15:37.370Z,98694.44
2023-04-13T17:18:04.881Z,98699.31
2023-04-13T17:20:31.778Z,98704.19
2023-04-13T17:22:58.489Z,98714.13
2023-04-13T17:25:25.212Z,98718.09
2023-04-13T17:27:53.360Z,98721.16
2023-04-13T17:30:20.895Z,98716.63
2023-04-13T17:32:47.689Z,98717.25
2023-04-13T17:35:16.155Z,98729.72
2023-04-13T17:37:42.884Z,98730.19
2023-04-13T17:40:10.600Z,98730.69
2023-04-13T17:42:37.324Z,98734.59
2023-04-13T17:45:04.876Z,98737.63
2023-04-13T17:47:31.628Z,98749.16
2023-04-13T17:49:58.558Z,98758.06
2023-04-13T17:52:25.319Z,98752.59
2023-04-13T17:54:52.069Z,98758.94
2023-04-13T17:57:18.795Z,98766.19
2023-04-13T17:59:47.071Z,98768.34
2023-04-13T18:02:13.909Z,98775.63
2023-04-13T18:04:40.790Z,98770.94
2023-04-13T18:07:07.770Z,98767.97
2023-04-13T18:09:34.545Z,98781.06
2023-04-13T18:12:01.291Z,98787.44
2023-04-13T18:14:27.998Z,98788.66
2023-04-13T18:16:55.858Z,98793.25
2023-04-13T18:19:22.566Z,98799.53
2023-04-13T18:21:49.429Z,98798.16
2023-04-13T18:24:16.347Z,98805.19
2023-04-13T18:26:43.067Z,98804.59
2023-04-13T18:29:09.841Z,98812.53
2023-04-13T18:31:36.571Z,98814.47
2023-04-13T18:34:06.516Z,98816.44
2023-04-13T18:36:33.488Z,98818.38
2023-04-13T18:39:01.643Z,98826.28
2023-04-13T18:41:28.437Z,98817.13
2023-04-13T18:43:55.227Z,98819.03
2023-04-13T18:46:22.108Z,98821.88
2023-04-13T18:48:48.849Z,98824.59
2023-04-13T18:51:15.539Z,98825.75
2023-04-13T18:53:42.348Z,98827.63
2023-04-13T18:56:09.205Z,98834.63
2023-04-13T18:58:36.216Z,98837.28
2023-04-13T19:01:02.965Z,98842.50
2023-04-13T19:03:29.833Z,98852.03
2023-04-13T19:05:56.668Z,98855.59
2023-04-13T19:08:23.432Z,98860.09
2023-04-13T19:10:50.338Z,98873.84
2023-04-13T19:13:17.165Z,98873.25
2023-04-13T19:15:43.962Z,98885.38
2023-04-13T19:18:11.294Z,98885.66
2023-04-13T19:20:38.212Z,98881.66
2023-04-13T19:23:04.994Z,98881.00
2023-04-13T19:25:31.723Z,98882.94
2023-04-13T19:27:58.752Z,98884.81
2023-04-13T19:30:25.774Z,98890.09
2023-04-13T19:32:54.247Z,98884.28
2023-04-13T19:35:24.217Z,98886.88
2023-04-13T19:37:50.959Z,98887.81
2023-04-13T19:40:17.910Z,98894.66
2023-04-13T19:42:46.332Z,98892.19
2023-04-13T19:45:14.684Z,98895.66
2023-04-13T19:47:42.464Z,98903.34
2023-04-13T19:50:13.108Z,98903.47
2023-04-13T19:52:41.618Z,98903.63
2023-04-13T19:55:10.436Z,98908.84
2023-04-13T19:57:41.744Z,98909.00
2023-04-13T20:00:17.292Z,98905.75
2023-04-13T20:02:46.908Z,98904.19
2023-04-13T20:05:15.490Z,98906.88
2023-04-13T20:07:42.721Z,98906.97
2023-04-13T20:10:12.017Z,98911.31
2023-04-13T20:12:39.646Z,98917.34
2023-04-13T20:15:07.680Z,98919.13
2023-04-13T20:17:34.453Z,98922.59
2023-04-13T20:20:01.263Z,98926.94
2023-04-13T20:22:28.108Z,98922.84
2023-04-13T20:24:55.499Z,98922.09
2023-04-13T20:27:22.848Z,98923.94
2023-04-13T20:29:51.057Z,98931.69
2023-04-13T20:32:17.893Z,98925.03
2023-04-13T20:34:45.100Z,98928.50
2023-04-13T20:37:14.164Z,98931.19
2023-04-13T20:39:50.508Z,98933.81
2023-04-13T20:42:19.814Z,98928.84
2023-04-13T20:44:49.177Z,98930.66
2023-04-13T20:47:16.669Z,98934.16
2023-04-13T20:49:46.815Z,98941.03
2023-04-13T20:52:14.046Z,98947.84
2023-04-13T20:54:41.468Z,98949.66
2023-04-13T20:57:09.277Z,98951.44
2023-04-13T20:59:37.371Z,98959.13
2023-04-13T21:02:05.366Z,98956.72
2023-04-13T21:04:32.211Z,98961.84
2023-04-13T21:07:02.206Z,98961.94
2023-04-13T21:09:30.606Z,98964.53
2023-04-13T21:11:58.001Z,98965.47
2023-04-13T21:14:25.507Z,98973.13
2023-04-13T21:16:52.720Z,98970.66
2023-04-13T21:19:19.882Z,98973.25
2023-04-13T21:21:46.887Z,98980.06
2023-04-13T21:24:14.095Z,98980.94
2023-04-13T21:26:40.840Z,98980.94
2023-04-13T21:29:08.940Z,98979.31
2023-04-13T21:31:35.777Z,98982.69
2023-04-13T21:34:03.825Z,98991.19
2023-04-13T21:39:00.550Z,98988.69
2023-04-13T21:41:27.548Z,98982.81
2023-04-13T21:43:54.338Z,98981.16
2023-04-13T21:46:21.372Z,98981.19
2023-04-13T21:48:48.097Z,98981.25
2023-04-13T21:51:14.876Z,98978.75
2023-04-13T21:53:41.644Z,98977.97
2023-04-13T21:56:08.531Z,98977.94
2023-04-13T21:58:41.593Z,98983.94
2023-04-13T22:01:08.791Z,98983.13
2023-04-13T22:03:41.673Z,98984.78
2023-04-13T22:06:10.792Z,98989.84
2023-04-13T22:08:38.124Z,98985.66
2023-04-13T22:11:05.355Z,98976.41
2023-04-13T22:13:32.588Z,98977.28
2023-04-13T22:15:59.543Z,98978.13
2023-04-13T22:18:27.494Z,98975.59
2023-04-13T22:20:54.298Z,98970.59
2023-04-13T22:23:21.047Z,98980.75
2023-04-13T22:26:01.133Z,98979.94
2023-04-13T22:28:29.267Z,98985.84
2023-04-13T22:30:56.345Z,98987.59
2023-04-13T22:33:23.279Z,98984.25
2023-04-13T22:35:52.826Z,98983.44
2023-04-13T22:38:19.940Z,98987.69
2023-04-13T22:40:46.672Z,98982.66
2023-04-13T22:43:13.419Z,98985.19
2023-04-13T22:45:40.432Z,98984.38
2023-04-13T22:48:07.301Z,98976.81
2023-04-13T22:50:37.826Z,98986.09
2023-04-13T22:53:05.533Z,98983.63
2023-04-13T22:55:32.275Z,98992.94
2023-04-13T22:57:58.983Z,98983.69
2023-04-13T23:00:25.687Z,98984.56
2023-04-13T23:02:55.821Z,98981.19
2023-04-13T23:05:23.190Z,98979.53
2023-04-13T23:07:50.592Z,98975.31
2023-04-13T23:10:17.873Z,98976.16
2023-04-13T23:12:45.694Z,98977.91
2023-04-13T23:15:13.747Z,98992.25
2023-04-13T23:17:40.747Z,98981.31
2023-04-13T23:20:08.163Z,98987.25
2023-04-13T23:22:34.977Z,98991.47
2023-04-13T23:25:01.742Z,98988.09
2023-04-13T23:27:28.633Z,98990.69
2023-04-13T23:29:55.357Z,98988.19
2023-04-13T23:32:22.102Z,98978.94
2023-04-13T23:34:50.786Z,98983.16
2023-04-13T23:37:17.514Z,98984.03
2023-04-13T23:39:44.208Z,98982.38
2023-04-13T23:42:11.446Z,98979.03
2023-04-13T23:44:38.169Z,98978.22
2023-04-13T23:47:06.094Z,98986.69
2023-04-13T23:49:32.843Z,98983.31
2023-04-13T23:51:59.526Z,98990.94
2023-04-13T23:54:26.587Z,98987.59
2023-04-13T23:56:53.293Z,98990.13
2023-04-13T23:59:20.170Z,98987.63
